sensor_id;sensor_type;location;lat;lon;timestamp;P1;durP1;ratioP1;P2;durP2;ratioP2
72273;SDS011;60208;48.692;8.948;2022-09-09T00:02:21;3.20;;;1.20;;
72273;SDS011;60208;48.692;8.948;2022-09-09T00:10:26;3.28;;;1.20;;
72273;SDS011;60208;48.692;8.948;2022-09-09T00:15:42;4.55;;;1.20;;
72273;SDS011;60208;48.692;8.948;2022-09-09T00:18:32;4.22;;;1.23;;
72273;SDS011;60208;48.692;8.948;2022-09-09T00:21:19;4.17;;;1.33;;
72273;SDS011;60208;48.692;8.948;2022-09-09T00:23:53;2.28;;;1.05;;
72273;SDS011;60208;48.692;8.948;2022-09-09T00:26:42;2.63;;;1.20;;
72273;SDS011;60208;48.692;8.948;2022-09-09T00:29:22;3.70;;;1.02;;
72273;SDS011;60208;48.692;8.948;2022-09-09T00:31:54;3.08;;;1.10;;
72273;SDS011;60208;48.692;8.948;2022-09-09T00:34:22;3.15;;;1.35;;
72273;SDS011;60208;48.692;8.948;2022-09-09T00:36:49;2.92;;;1.20;;
72273;SDS011;60208;48.692;8.948;2022-09-09T00:39:38;5.22;;;1.25;;
72273;SDS011;60208;48.692;8.948;2022-09-09T00:42:18;3.33;;;1.40;;
72273;SDS011;60208;48.692;8.948;2022-09-09T00:47:53;4.15;;;1.30;;
72273;SDS011;60208;48.692;8.948;2022-09-09T00:56:35;2.25;;;1.08;;
72273;SDS011;60208;48.692;8.948;2022-09-09T01:01:35;1.45;;;0.82;;
72273;SDS011;60208;48.692;8.948;2022-09-09T01:04:00;2.45;;;1.05;;
72273;SDS011;60208;48.692;8.948;2022-09-09T01:06:34;2.88;;;1.20;;
72273;SDS011;60208;48.692;8.948;2022-09-09T01:14:45;3.22;;;1.13;;
72273;SDS011;60208;48.692;8.948;2022-09-09T01:17:17;2.65;;;1.02;;
72273;SDS011;60208;48.692;8.948;2022-09-09T01:28:08;2.40;;;1.10;;
72273;SDS011;60208;48.692;8.948;2022-09-09T01:30:38;3.78;;;1.13;;
72273;SDS011;60208;48.692;8.948;2022-09-09T01:33:04;1.55;;;0.93;;
72273;SDS011;60208;48.692;8.948;2022-09-09T01:38:07;3.38;;;1.00;;
72273;SDS011;60208;48.692;8.948;2022-09-09T01:40:32;2.88;;;1.00;;
72273;SDS011;60208;48.692;8.948;2022-09-09T01:42:58;1.88;;;1.20;;
72273;SDS011;60208;48.692;8.948;2022-09-09T01:45:23;3.38;;;1.10;;
72273;SDS011;60208;48.692;8.948;2022-09-09T01:47:49;4.40;;;1.10;;
72273;SDS011;60208;48.692;8.948;2022-09-09T01:50:15;5.05;;;1.10;;
72273;SDS011;60208;48.692;8.948;2022-09-09T01:52:41;3.10;;;1.08;;
72273;SDS011;60208;48.692;8.948;2022-09-09T01:55:09;2.30;;;1.10;;
72273;SDS011;60208;48.692;8.948;2022-09-09T02:01:15;2.70;;;0.98;;
72273;SDS011;60208;48.692;8.948;2022-09-09T02:03:40;2.08;;;0.90;;
72273;SDS011;60208;48.692;8.948;2022-09-09T02:08:48;3.65;;;1.20;;
72273;SDS011;60208;48.692;8.948;2022-09-09T02:13:41;4.38;;;1.05;;
72273;SDS011;60208;48.692;8.948;2022-09-09T02:16:10;2.28;;;1.20;;
72273;SDS011;60208;48.692;8.948;2022-09-09T02:21:15;4.47;;;1.20;;
72273;SDS011;60208;48.692;8.948;2022-09-09T02:23:42;2.13;;;1.10;;
72273;SDS011;60208;48.692;8.948;2022-09-09T02:26:08;4.20;;;0.95;;
72273;SDS011;60208;48.692;8.948;2022-09-09T02:28:35;4.68;;;1.10;;
72273;SDS011;60208;48.692;8.948;2022-09-09T02:31:02;3.38;;;1.15;;
72273;SDS011;60208;48.692;8.948;2022-09-09T02:33:28;2.10;;;1.10;;
72273;SDS011;60208;48.692;8.948;2022-09-09T02:36:01;3.60;;;1.20;;
72273;SDS011;60208;48.692;8.948;2022-09-09T02:38:29;3.90;;;1.10;;
72273;SDS011;60208;48.692;8.948;2022-09-09T02:40:57;6.50;;;1.10;;
72273;SDS011;60208;48.692;8.948;2022-09-09T02:43:23;4.03;;;1.13;;
72273;SDS011;60208;48.692;8.948;2022-09-09T02:45:56;4.43;;;1.20;;
72273;SDS011;60208;48.692;8.948;2022-09-09T02:54:26;2.22;;;1.10;;
72273;SDS011;60208;48.692;8.948;2022-09-09T02:56:55;6.60;;;1.42;;
72273;SDS011;60208;48.692;8.948;2022-09-09T02:59:43;4.05;;;1.13;;
72273;SDS011;60208;48.692;8.948;2022-09-09T03:02:09;2.92;;;1.10;;
72273;SDS011;60208;48.692;8.948;2022-09-09T03:04:36;1.67;;;0.90;;
72273;SDS011;60208;48.692;8.948;2022-09-09T03:07:02;4.63;;;1.10;;
72273;SDS011;60208;48.692;8.948;2022-09-09T03:09:28;4.20;;;1.17;;
72273;SDS011;60208;48.692;8.948;2022-09-09T03:11:54;2.95;;;1.13;;
72273;SDS011;60208;48.692;8.948;2022-09-09T03:14:20;4.03;;;1.10;;
72273;SDS011;60208;48.692;8.948;2022-09-09T03:16:49;4.30;;;1.20;;
72273;SDS011;60208;48.692;8.948;2022-09-09T03:19:15;2.00;;;0.90;;
72273;SDS011;60208;48.692;8.948;2022-09-09T03:21:40;1.35;;;0.90;;
72273;SDS011;60208;48.692;8.948;2022-09-09T03:24:05;4.30;;;1.20;;
72273;SDS011;60208;48.692;8.948;2022-09-09T03:26:31;2.17;;;1.00;;
72273;SDS011;60208;48.692;8.948;2022-09-09T03:28:57;1.45;;;0.90;;
72273;SDS011;60208;48.692;8.948;2022-09-09T03:31:22;1.90;;;1.20;;
72273;SDS011;60208;48.692;8.948;2022-09-09T03:33:47;3.97;;;1.23;;
72273;SDS011;60208;48.692;8.948;2022-09-09T03:36:13;1.58;;;0.90;;
72273;SDS011;60208;48.692;8.948;2022-09-09T03:38:40;4.30;;;1.20;;
72273;SDS011;60208;48.692;8.948;2022-09-09T03:41:05;2.95;;;1.30;;
72273;SDS011;60208;48.692;8.948;2022-09-09T03:43:31;2.35;;;1.10;;
72273;SDS011;60208;48.692;8.948;2022-09-09T03:45:56;2.35;;;1.15;;
72273;SDS011;60208;48.692;8.948;2022-09-09T03:48:21;1.88;;;1.00;;
72273;SDS011;60208;48.692;8.948;2022-09-09T03:50:48;2.17;;;0.95;;
72273;SDS011;60208;48.692;8.948;2022-09-09T03:53:16;3.58;;;1.13;;
72273;SDS011;60208;48.692;8.948;2022-09-09T03:55:45;4.97;;;1.30;;
72273;SDS011;60208;48.692;8.948;2022-09-09T03:58:12;2.63;;;1.30;;
72273;SDS011;60208;48.692;8.948;2022-09-09T04:00:39;2.03;;;1.10;;
72273;SDS011;60208;48.692;8.948;2022-09-09T04:03:09;2.65;;;1.00;;
72273;SDS011;60208;48.692;8.948;2022-09-09T04:05:35;3.85;;;1.30;;
72273;SDS011;60208;48.692;8.948;2022-09-09T04:08:04;4.28;;;1.38;;
72273;SDS011;60208;48.692;8.948;2022-09-09T04:10:33;1.77;;;1.10;;
72273;SDS011;60208;48.692;8.948;2022-09-09T04:13:01;3.28;;;1.48;;
72273;SDS011;60208;48.692;8.948;2022-09-09T04:15:26;3.58;;;1.40;;
72273;SDS011;60208;48.692;8.948;2022-09-09T04:17:52;2.70;;;1.02;;
72273;SDS011;60208;48.692;8.948;2022-09-09T04:20:17;2.60;;;1.00;;
72273;SDS011;60208;48.692;8.948;2022-09-09T04:22:43;2.25;;;1.20;;
72273;SDS011;60208;48.692;8.948;2022-09-09T04:25:09;4.88;;;1.25;;
72273;SDS011;60208;48.692;8.948;2022-09-09T04:27:34;6.05;;;1.30;;
72273;SDS011;60208;48.692;8.948;2022-09-09T04:29:59;3.00;;;1.23;;
72273;SDS011;60208;48.692;8.948;2022-09-09T04:32:25;1.20;;;0.88;;
72273;SDS011;60208;48.692;8.948;2022-09-09T04:34:53;2.83;;;1.20;;
72273;SDS011;60208;48.692;8.948;2022-09-09T04:37:18;2.42;;;1.00;;
72273;SDS011;60208;48.692;8.948;2022-09-09T04:39:44;2.28;;;1.20;;
72273;SDS011;60208;48.692;8.948;2022-09-09T04:42:10;3.50;;;1.10;;
72273;SDS011;60208;48.692;8.948;2022-09-09T04:44:37;3.42;;;1.20;;
72273;SDS011;60208;48.692;8.948;2022-09-09T04:47:02;2.70;;;1.10;;
72273;SDS011;60208;48.692;8.948;2022-09-09T04:49:27;1.73;;;1.00;;
72273;SDS011;60208;48.692;8.948;2022-09-09T04:51:53;1.70;;;1.05;;
72273;SDS011;60208;48.692;8.948;2022-09-09T04:54:18;3.63;;;1.20;;
72273;SDS011;60208;48.692;8.948;2022-09-09T04:56:44;2.38;;;1.42;;
72273;SDS011;60208;48.692;8.948;2022-09-09T04:59:09;4.00;;;1.70;;
72273;SDS011;60208;48.692;8.948;2022-09-09T05:01:34;4.15;;;1.50;;
72273;SDS011;60208;48.692;8.948;2022-09-09T05:04:01;3.38;;;1.90;;
72273;SDS011;60208;48.692;8.948;2022-09-09T05:06:27;4.45;;;1.80;;
72273;SDS011;60208;48.692;8.948;2022-09-09T05:08:55;2.90;;;1.50;;
72273;SDS011;60208;48.692;8.948;2022-09-09T05:11:21;3.65;;;1.45;;
72273;SDS011;60208;48.692;8.948;2022-09-09T05:13:50;5.75;;;1.73;;
72273;SDS011;60208;48.692;8.948;2022-09-09T05:16:17;4.55;;;1.55;;
72273;SDS011;60208;48.692;8.948;2022-09-09T05:18:42;2.83;;;1.27;;
72273;SDS011;60208;48.692;8.948;2022-09-09T05:21:08;3.40;;;1.23;;
72273;SDS011;60208;48.692;8.948;2022-09-09T05:23:34;4.97;;;1.77;;
72273;SDS011;60208;48.692;8.948;2022-09-09T05:26:00;4.70;;;1.48;;
72273;SDS011;60208;48.692;8.948;2022-09-09T05:28:26;4.78;;;1.23;;
72273;SDS011;60208;48.692;8.948;2022-09-09T05:30:58;3.67;;;1.27;;
72273;SDS011;60208;48.692;8.948;2022-09-09T05:33:33;3.92;;;1.30;;
72273;SDS011;60208;48.692;8.948;2022-09-09T05:36:05;8.02;;;1.40;;
72273;SDS011;60208;48.692;8.948;2022-09-09T05:38:32;1.58;;;1.15;;
72273;SDS011;60208;48.692;8.948;2022-09-09T05:40:58;5.53;;;1.58;;
72273;SDS011;60208;48.692;8.948;2022-09-09T05:43:24;3.15;;;1.13;;
72273;SDS011;60208;48.692;8.948;2022-09-09T05:46:00;3.22;;;1.15;;
72273;SDS011;60208;48.692;8.948;2022-09-09T05:48:45;4.20;;;1.27;;
72273;SDS011;60208;48.692;8.948;2022-09-09T05:51:12;5.82;;;1.40;;
72273;SDS011;60208;48.692;8.948;2022-09-09T05:53:41;5.03;;;1.30;;
72273;SDS011;60208;48.692;8.948;2022-09-09T05:58:35;2.10;;;0.90;;
72273;SDS011;60208;48.692;8.948;2022-09-09T06:01:01;2.70;;;1.30;;
72273;SDS011;60208;48.692;8.948;2022-09-09T06:03:28;4.20;;;1.30;;
72273;SDS011;60208;48.692;8.948;2022-09-09T06:05:57;5.30;;;1.17;;
72273;SDS011;60208;48.692;8.948;2022-09-09T06:08:26;3.15;;;1.42;;
72273;SDS011;60208;48.692;8.948;2022-09-09T06:10:51;2.58;;;1.05;;
72273;SDS011;60208;48.692;8.948;2022-09-09T06:13:17;5.03;;;1.10;;
72273;SDS011;60208;48.692;8.948;2022-09-09T06:15:49;2.90;;;1.13;;
72273;SDS011;60208;48.692;8.948;2022-09-09T06:20:43;2.97;;;1.20;;
72273;SDS011;60208;48.692;8.948;2022-09-09T06:23:08;5.30;;;1.25;;
72273;SDS011;60208;48.692;8.948;2022-09-09T06:25:33;3.55;;;1.27;;
72273;SDS011;60208;48.692;8.948;2022-09-09T06:27:59;2.78;;;1.00;;
72273;SDS011;60208;48.692;8.948;2022-09-09T06:30:24;5.18;;;1.20;;
72273;SDS011;60208;48.692;8.948;2022-09-09T06:32:50;3.33;;;1.15;;
72273;SDS011;60208;48.692;8.948;2022-09-09T06:35:16;3.28;;;1.20;;
72273;SDS011;60208;48.692;8.948;2022-09-09T06:37:44;7.22;;;1.20;;
72273;SDS011;60208;48.692;8.948;2022-09-09T06:40:10;6.15;;;1.38;;
72273;SDS011;60208;48.692;8.948;2022-09-09T06:42:36;4.13;;;1.30;;
72273;SDS011;60208;48.692;8.948;2022-09-09T06:45:01;5.80;;;1.60;;
72273;SDS011;60208;48.692;8.948;2022-09-09T06:47:27;4.60;;;1.40;;
72273;SDS011;60208;48.692;8.948;2022-09-09T06:49:53;7.05;;;1.50;;
72273;SDS011;60208;48.692;8.948;2022-09-09T06:52:18;2.92;;;1.30;;
72273;SDS011;60208;48.692;8.948;2022-09-09T06:54:44;4.55;;;1.35;;
72273;SDS011;60208;48.692;8.948;2022-09-09T06:57:10;4.72;;;1.20;;
72273;SDS011;60208;48.692;8.948;2022-09-09T06:59:35;4.25;;;1.17;;
72273;SDS011;60208;48.692;8.948;2022-09-09T07:02:01;5.25;;;1.30;;
72273;SDS011;60208;48.692;8.948;2022-09-09T07:04:27;7.90;;;1.60;;
72273;SDS011;60208;48.692;8.948;2022-09-09T07:06:52;3.72;;;1.15;;
72273;SDS011;60208;48.692;8.948;2022-09-09T07:09:17;3.60;;;1.20;;
72273;SDS011;60208;48.692;8.948;2022-09-09T07:11:44;3.78;;;1.45;;
72273;SDS011;60208;48.692;8.948;2022-09-09T07:14:11;3.03;;;1.00;;
72273;SDS011;60208;48.692;8.948;2022-09-09T07:16:40;4.65;;;1.50;;
72273;SDS011;60208;48.692;8.948;2022-09-09T07:19:06;1.77;;;1.00;;
72273;SDS011;60208;48.692;8.948;2022-09-09T07:21:32;1.95;;;0.90;;
72273;SDS011;60208;48.692;8.948;2022-09-09T07:23:58;3.88;;;1.17;;
72273;SDS011;60208;48.692;8.948;2022-09-09T07:26:25;2.47;;;1.08;;
72273;SDS011;60208;48.692;8.948;2022-09-09T07:28:52;1.95;;;1.20;;
72273;SDS011;60208;48.692;8.948;2022-09-09T07:31:19;2.28;;;0.90;;
72273;SDS011;60208;48.692;8.948;2022-09-09T07:33:47;2.38;;;1.02;;
72273;SDS011;60208;48.692;8.948;2022-09-09T07:38:43;4.40;;;1.10;;
72273;SDS011;60208;48.692;8.948;2022-09-09T07:41:11;3.25;;;1.17;;
72273;SDS011;60208;48.692;8.948;2022-09-09T07:43:39;2.80;;;1.00;;
72273;SDS011;60208;48.692;8.948;2022-09-09T07:46:06;5.47;;;1.13;;
72273;SDS011;60208;48.692;8.948;2022-09-09T07:48:32;2.70;;;1.00;;
72273;SDS011;60208;48.692;8.948;2022-09-09T07:51:09;2.65;;;1.00;;
72273;SDS011;60208;48.692;8.948;2022-09-09T07:53:36;3.33;;;0.93;;
72273;SDS011;60208;48.692;8.948;2022-09-09T07:56:13;3.63;;;1.00;;
72273;SDS011;60208;48.692;8.948;2022-09-09T07:58:40;3.53;;;1.33;;
72273;SDS011;60208;48.692;8.948;2022-09-09T08:01:07;3.58;;;1.10;;
72273;SDS011;60208;48.692;8.948;2022-09-09T08:03:41;3.22;;;1.10;;
72273;SDS011;60208;48.692;8.948;2022-09-09T08:06:07;2.95;;;1.20;;
72273;SDS011;60208;48.692;8.948;2022-09-09T08:08:34;3.10;;;1.30;;
72273;SDS011;60208;48.692;8.948;2022-09-09T08:11:05;4.63;;;1.40;;
72273;SDS011;60208;48.692;8.948;2022-09-09T08:13:39;2.58;;;1.15;;
72273;SDS011;60208;48.692;8.948;2022-09-09T08:16:06;2.15;;;1.13;;
72273;SDS011;60208;48.692;8.948;2022-09-09T08:18:33;3.15;;;1.30;;
72273;SDS011;60208;48.692;8.948;2022-09-09T08:21:04;3.30;;;1.15;;
72273;SDS011;60208;48.692;8.948;2022-09-09T08:23:30;7.50;;;1.20;;
72273;SDS011;60208;48.692;8.948;2022-09-09T08:26:02;5.15;;;1.25;;
72273;SDS011;60208;48.692;8.948;2022-09-09T08:30:55;3.38;;;0.88;;
72273;SDS011;60208;48.692;8.948;2022-09-09T08:33:21;4.50;;;0.93;;
72273;SDS011;60208;48.692;8.948;2022-09-09T08:35:50;6.07;;;1.10;;
72273;SDS011;60208;48.692;8.948;2022-09-09T08:38:15;4.95;;;1.13;;
72273;SDS011;60208;48.692;8.948;2022-09-09T08:40:42;3.38;;;1.02;;
72273;SDS011;60208;48.692;8.948;2022-09-09T08:43:10;3.13;;;1.00;;
72273;SDS011;60208;48.692;8.948;2022-09-09T08:46:22;4.93;;;1.10;;
72273;SDS011;60208;48.692;8.948;2022-09-09T08:51:06;4.57;;;1.20;;
72273;SDS011;60208;48.692;8.948;2022-09-09T08:53:42;2.92;;;1.08;;
72273;SDS011;60208;48.692;8.948;2022-09-09T08:56:11;5.18;;;1.30;;
72273;SDS011;60208;48.692;8.948;2022-09-09T08:58:44;5.47;;;1.20;;
72273;SDS011;60208;48.692;8.948;2022-09-09T09:06:55;4.20;;;0.80;;
72273;SDS011;60208;48.692;8.948;2022-09-09T09:12:19;4.50;;;0.90;;
72273;SDS011;60208;48.692;8.948;2022-09-09T09:14:47;2.80;;;0.90;;
72273;SDS011;60208;48.692;8.948;2022-09-09T09:17:13;3.40;;;0.70;;
72273;SDS011;60208;48.692;8.948;2022-09-09T09:19:41;2.38;;;0.95;;
72273;SDS011;60208;48.692;8.948;2022-09-09T09:22:20;3.47;;;0.90;;
72273;SDS011;60208;48.692;8.948;2022-09-09T09:30:25;3.92;;;1.30;;
72273;SDS011;60208;48.692;8.948;2022-09-09T09:35:20;2.97;;;1.30;;
72273;SDS011;60208;48.692;8.948;2022-09-09T09:37:46;4.20;;;1.00;;
72273;SDS011;60208;48.692;8.948;2022-09-09T09:40:19;4.53;;;1.17;;
72273;SDS011;60208;48.692;8.948;2022-09-09T09:45:27;2.60;;;0.80;;
72273;SDS011;60208;48.692;8.948;2022-09-09T09:48:00;3.30;;;1.00;;
72273;SDS011;60208;48.692;8.948;2022-09-09T09:50:27;2.42;;;0.90;;
72273;SDS011;60208;48.692;8.948;2022-09-09T09:52:56;2.53;;;0.95;;
72273;SDS011;60208;48.692;8.948;2022-09-09T09:55:23;3.97;;;1.05;;
72273;SDS011;60208;48.692;8.948;2022-09-09T09:57:49;2.85;;;0.90;;
72273;SDS011;60208;48.692;8.948;2022-09-09T10:02:42;3.25;;;0.93;;
72273;SDS011;60208;48.692;8.948;2022-09-09T10:05:13;1.77;;;0.93;;
72273;SDS011;60208;48.692;8.948;2022-09-09T10:08:00;3.47;;;1.00;;
72273;SDS011;60208;48.692;8.948;2022-09-09T10:10:44;3.17;;;1.08;;
72273;SDS011;60208;48.692;8.948;2022-09-09T10:13:18;2.35;;;0.70;;
72273;SDS011;60208;48.692;8.948;2022-09-09T10:27:08;2.92;;;0.77;;
72273;SDS011;60208;48.692;8.948;2022-09-09T10:32:36;3.00;;;0.80;;
72273;SDS011;60208;48.692;8.948;2022-09-09T10:42:44;2.90;;;0.70;;
72273;SDS011;60208;48.692;8.948;2022-09-09T10:45:20;2.00;;;0.70;;
72273;SDS011;60208;48.692;8.948;2022-09-09T10:48:01;4.18;;;0.90;;
72273;SDS011;60208;48.692;8.948;2022-09-09T10:55:42;3.63;;;0.70;;
72273;SDS011;60208;48.692;8.948;2022-09-09T10:58:20;2.55;;;0.57;;
72273;SDS011;60208;48.692;8.948;2022-09-09T11:01:00;3.83;;;0.80;;
72273;SDS011;60208;48.692;8.948;2022-09-09T11:03:32;2.20;;;0.57;;
72273;SDS011;60208;48.692;8.948;2022-09-09T11:06:03;5.38;;;0.68;;
72273;SDS011;60208;48.692;8.948;2022-09-09T11:08:30;1.73;;;0.60;;
72273;SDS011;60208;48.692;8.948;2022-09-09T11:10:59;4.70;;;0.60;;
72273;SDS011;60208;48.692;8.948;2022-09-09T11:18:51;2.95;;;0.75;;
72273;SDS011;60208;48.692;8.948;2022-09-09T11:21:22;1.48;;;0.63;;
72273;SDS011;60208;48.692;8.948;2022-09-09T11:23:56;1.60;;;0.30;;
72273;SDS011;60208;48.692;8.948;2022-09-09T11:26:36;0.50;;;0.32;;
72273;SDS011;60208;48.692;8.948;2022-09-09T11:29:09;0.60;;;0.30;;
72273;SDS011;60208;48.692;8.948;2022-09-09T11:42:47;1.33;;;0.35;;
72273;SDS011;60208;48.692;8.948;2022-09-09T11:47:52;1.98;;;0.40;;
72273;SDS011;60208;48.692;8.948;2022-09-09T11:52:44;1.77;;;0.43;;
72273;SDS011;60208;48.692;8.948;2022-09-09T11:55:25;1.98;;;0.52;;
72273;SDS011;60208;48.692;8.948;2022-09-09T11:58:01;0.85;;;0.43;;
72273;SDS011;60208;48.692;8.948;2022-09-09T12:03:04;0.55;;;0.20;;
72273;SDS011;60208;48.692;8.948;2022-09-09T12:05:39;0.60;;;0.32;;
72273;SDS011;60208;48.692;8.948;2022-09-09T12:08:06;0.55;;;0.30;;
72273;SDS011;60208;48.692;8.948;2022-09-09T12:10:38;1.60;;;0.30;;
72273;SDS011;60208;48.692;8.948;2022-09-09T12:15:34;1.27;;;0.30;;
72273;SDS011;60208;48.692;8.948;2022-09-09T12:18:00;1.10;;;0.32;;
72273;SDS011;60208;48.692;8.948;2022-09-09T12:25:53;1.25;;;0.40;;
72273;SDS011;60208;48.692;8.948;2022-09-09T12:28:44;0.90;;;0.30;;
72273;SDS011;60208;48.692;8.948;2022-09-09T12:33:47;2.63;;;0.68;;
72273;SDS011;60208;48.692;8.948;2022-09-09T12:36:31;1.67;;;0.40;;
72273;SDS011;60208;48.692;8.948;2022-09-09T12:38:58;1.05;;;0.47;;
72273;SDS011;60208;48.692;8.948;2022-09-09T12:41:35;1.65;;;0.50;;
72273;SDS011;60208;48.692;8.948;2022-09-09T12:44:05;3.10;;;0.77;;
72273;SDS011;60208;48.692;8.948;2022-09-09T12:46:33;1.70;;;0.50;;
72273;SDS011;60208;48.692;8.948;2022-09-09T12:49:01;2.50;;;0.50;;
72273;SDS011;60208;48.692;8.948;2022-09-09T12:51:29;2.10;;;0.70;;
72273;SDS011;60208;48.692;8.948;2022-09-09T12:53:56;2.85;;;0.50;;
72273;SDS011;60208;48.692;8.948;2022-09-09T12:56:29;2.55;;;0.50;;
72273;SDS011;60208;48.692;8.948;2022-09-09T12:58:56;1.40;;;0.50;;
72273;SDS011;60208;48.692;8.948;2022-09-09T13:03:56;2.15;;;0.50;;
72273;SDS011;60208;48.692;8.948;2022-09-09T13:06:26;2.38;;;0.60;;
72273;SDS011;60208;48.692;8.948;2022-09-09T13:08:53;1.88;;;0.50;;
72273;SDS011;60208;48.692;8.948;2022-09-09T13:11:24;1.77;;;0.50;;
72273;SDS011;60208;48.692;8.948;2022-09-09T13:13:54;3.13;;;0.50;;
72273;SDS011;60208;48.692;8.948;2022-09-09T13:16:54;1.70;;;0.50;;
72273;SDS011;60208;48.692;8.948;2022-09-09T13:19:22;1.98;;;0.40;;
72273;SDS011;60208;48.692;8.948;2022-09-09T13:21:50;3.13;;;0.50;;
72273;SDS011;60208;48.692;8.948;2022-09-09T13:27:21;1.90;;;0.57;;
72273;SDS011;60208;48.692;8.948;2022-09-09T13:30:00;1.40;;;0.40;;
72273;SDS011;60208;48.692;8.948;2022-09-09T13:32:26;1.75;;;0.52;;
72273;SDS011;60208;48.692;8.948;2022-09-09T13:34:56;1.15;;;0.45;;
72273;SDS011;60208;48.692;8.948;2022-09-09T13:40:06;1.70;;;0.40;;
72273;SDS011;60208;48.692;8.948;2022-09-09T13:42:42;1.20;;;0.40;;
72273;SDS011;60208;48.692;8.948;2022-09-09T13:45:19;1.33;;;0.38;;
72273;SDS011;60208;48.692;8.948;2022-09-09T13:47:46;1.23;;;0.52;;
72273;SDS011;60208;48.692;8.948;2022-09-09T13:52:48;1.63;;;0.50;;
72273;SDS011;60208;48.692;8.948;2022-09-09T13:55:16;2.17;;;0.47;;
72273;SDS011;60208;48.692;8.948;2022-09-09T14:00:18;2.20;;;0.60;;
72273;SDS011;60208;48.692;8.948;2022-09-09T14:02:44;1.58;;;0.60;;
72273;SDS011;60208;48.692;8.948;2022-09-09T14:05:10;1.25;;;0.43;;
72273;SDS011;60208;48.692;8.948;2022-09-09T14:07:36;1.40;;;0.50;;
72273;SDS011;60208;48.692;8.948;2022-09-09T14:10:03;1.10;;;0.40;;
72273;SDS011;60208;48.692;8.948;2022-09-09T14:12:30;1.48;;;0.50;;
72273;SDS011;60208;48.692;8.948;2022-09-09T14:14:55;2.17;;;0.40;;
72273;SDS011;60208;48.692;8.948;2022-09-09T14:17:20;0.82;;;0.40;;
72273;SDS011;60208;48.692;8.948;2022-09-09T14:19:47;1.27;;;0.35;;
72273;SDS011;60208;48.692;8.948;2022-09-09T14:22:12;0.77;;;0.40;;
72273;SDS011;60208;48.692;8.948;2022-09-09T14:24:38;1.30;;;0.30;;
72273;SDS011;60208;48.692;8.948;2022-09-09T14:27:03;0.88;;;0.30;;
72273;SDS011;60208;48.692;8.948;2022-09-09T14:29:28;2.00;;;0.40;;
72273;SDS011;60208;48.692;8.948;2022-09-09T14:31:54;1.15;;;0.32;;
72273;SDS011;60208;48.692;8.948;2022-09-09T14:34:19;1.23;;;0.50;;
72273;SDS011;60208;48.692;8.948;2022-09-09T14:36:45;1.67;;;0.30;;
72273;SDS011;60208;48.692;8.948;2022-09-09T14:39:10;0.90;;;0.40;;
72273;SDS011;60208;48.692;8.948;2022-09-09T14:41:36;1.05;;;0.30;;
72273;SDS011;60208;48.692;8.948;2022-09-09T14:44:01;2.30;;;0.40;;
72273;SDS011;60208;48.692;8.948;2022-09-09T14:46:27;0.77;;;0.38;;
72273;SDS011;60208;48.692;8.948;2022-09-09T14:48:52;2.40;;;0.30;;
72273;SDS011;60208;48.692;8.948;2022-09-09T14:51:19;1.83;;;0.40;;
72273;SDS011;60208;48.692;8.948;2022-09-09T14:53:47;0.60;;;0.50;;
72273;SDS011;60208;48.692;8.948;2022-09-09T14:56:17;1.92;;;0.50;;
72273;SDS011;60208;48.692;8.948;2022-09-09T14:58:43;9.38;;;0.70;;
72273;SDS011;60208;48.692;8.948;2022-09-09T15:01:11;5.65;;;0.50;;
72273;SDS011;60208;48.692;8.948;2022-09-09T15:03:38;1.52;;;0.55;;
72273;SDS011;60208;48.692;8.948;2022-09-09T15:08:33;1.33;;;0.50;;
72273;SDS011;60208;48.692;8.948;2022-09-09T15:11:00;2.38;;;0.60;;
72273;SDS011;60208;48.692;8.948;2022-09-09T15:13:26;3.08;;;0.63;;
72273;SDS011;60208;48.692;8.948;2022-09-09T15:15:52;0.82;;;0.40;;
72273;SDS011;60208;48.692;8.948;2022-09-09T15:18:19;3.22;;;0.47;;
72273;SDS011;60208;48.692;8.948;2022-09-09T15:20:44;1.88;;;0.65;;
72273;SDS011;60208;48.692;8.948;2022-09-09T15:23:11;4.38;;;0.73;;
72273;SDS011;60208;48.692;8.948;2022-09-09T15:25:37;1.48;;;0.60;;
72273;SDS011;60208;48.692;8.948;2022-09-09T15:28:02;1.95;;;0.47;;
72273;SDS011;60208;48.692;8.948;2022-09-09T15:30:27;1.45;;;0.50;;
72273;SDS011;60208;48.692;8.948;2022-09-09T15:32:53;2.88;;;0.57;;
72273;SDS011;60208;48.692;8.948;2022-09-09T15:35:19;2.25;;;0.82;;
72273;SDS011;60208;48.692;8.948;2022-09-09T15:37:45;2.40;;;0.40;;
72273;SDS011;60208;48.692;8.948;2022-09-09T15:40:10;0.77;;;0.40;;
72273;SDS011;60208;48.692;8.948;2022-09-09T15:42:36;0.77;;;0.45;;
72273;SDS011;60208;48.692;8.948;2022-09-09T15:45:02;1.48;;;0.40;;
72273;SDS011;60208;48.692;8.948;2022-09-09T15:47:30;0.93;;;0.30;;
72273;SDS011;60208;48.692;8.948;2022-09-09T15:49:55;1.55;;;0.40;;
72273;SDS011;60208;48.692;8.948;2022-09-09T15:52:20;2.58;;;0.50;;
72273;SDS011;60208;48.692;8.948;2022-09-09T15:54:46;1.45;;;0.40;;
72273;SDS011;60208;48.692;8.948;2022-09-09T15:57:12;1.80;;;0.55;;
72273;SDS011;60208;48.692;8.948;2022-09-09T15:59:38;1.48;;;0.50;;
72273;SDS011;60208;48.692;8.948;2022-09-09T16:02:03;2.58;;;0.57;;
72273;SDS011;60208;48.692;8.948;2022-09-09T16:04:30;2.15;;;0.40;;
72273;SDS011;60208;48.692;8.948;2022-09-09T16:06:57;1.35;;;0.50;;
72273;SDS011;60208;48.692;8.948;2022-09-09T16:09:27;1.77;;;0.55;;
72273;SDS011;60208;48.692;8.948;2022-09-09T16:11:57;1.70;;;0.55;;
72273;SDS011;60208;48.692;8.948;2022-09-09T16:14:26;2.07;;;0.60;;
72273;SDS011;60208;48.692;8.948;2022-09-09T16:16:51;2.70;;;0.40;;
72273;SDS011;60208;48.692;8.948;2022-09-09T16:19:17;1.17;;;0.40;;
72273;SDS011;60208;48.692;8.948;2022-09-09T16:21:43;1.85;;;0.30;;
72273;SDS011;60208;48.692;8.948;2022-09-09T16:24:12;2.35;;;0.50;;
72273;SDS011;60208;48.692;8.948;2022-09-09T16:26:40;2.80;;;0.60;;
72273;SDS011;60208;48.692;8.948;2022-09-09T16:29:10;1.30;;;0.38;;
72273;SDS011;60208;48.692;8.948;2022-09-09T16:31:39;2.35;;;0.30;;
72273;SDS011;60208;48.692;8.948;2022-09-09T16:34:05;1.33;;;0.30;;
72273;SDS011;60208;48.692;8.948;2022-09-09T16:36:32;1.63;;;0.30;;
72273;SDS011;60208;48.692;8.948;2022-09-09T16:39:03;1.00;;;0.35;;
72273;SDS011;60208;48.692;8.948;2022-09-09T16:41:30;0.80;;;0.20;;
72273;SDS011;60208;48.692;8.948;2022-09-09T16:44:00;1.08;;;0.40;;
72273;SDS011;60208;48.692;8.948;2022-09-09T16:46:30;0.30;;;0.20;;
72273;SDS011;60208;48.692;8.948;2022-09-09T16:48:58;0.93;;;0.40;;
72273;SDS011;60208;48.692;8.948;2022-09-09T16:51:25;1.00;;;0.30;;
72273;SDS011;60208;48.692;8.948;2022-09-09T16:53:52;0.90;;;0.30;;
72273;SDS011;60208;48.692;8.948;2022-09-09T16:56:19;0.70;;;0.30;;
72273;SDS011;60208;48.692;8.948;2022-09-09T16:58:50;1.15;;;0.20;;
72273;SDS011;60208;48.692;8.948;2022-09-09T17:01:20;1.80;;;0.30;;
72273;SDS011;60208;48.692;8.948;2022-09-09T17:03:45;2.20;;;0.38;;
72273;SDS011;60208;48.692;8.948;2022-09-09T17:06:11;0.88;;;0.35;;
72273;SDS011;60208;48.692;8.948;2022-09-09T17:08:38;1.08;;;0.40;;
72273;SDS011;60208;48.692;8.948;2022-09-09T17:11:10;0.77;;;0.20;;
72273;SDS011;60208;48.692;8.948;2022-09-09T17:13:40;0.82;;;0.30;;
72273;SDS011;60208;48.692;8.948;2022-09-09T17:16:10;1.52;;;0.75;;
72273;SDS011;60208;48.692;8.948;2022-09-09T17:18:36;1.58;;;0.40;;
72273;SDS011;60208;48.692;8.948;2022-09-09T17:21:06;1.65;;;0.57;;
72273;SDS011;60208;48.692;8.948;2022-09-09T17:23:36;1.15;;;0.40;;
72273;SDS011;60208;48.692;8.948;2022-09-09T17:26:03;2.85;;;0.47;;
72273;SDS011;60208;48.692;8.948;2022-09-09T17:28:34;0.60;;;0.38;;
72273;SDS011;60208;48.692;8.948;2022-09-09T17:31:00;1.85;;;0.50;;
72273;SDS011;60208;48.692;8.948;2022-09-09T17:33:28;1.70;;;0.40;;
72273;SDS011;60208;48.692;8.948;2022-09-09T17:35:57;1.33;;;0.32;;
72273;SDS011;60208;48.692;8.948;2022-09-09T17:38:24;1.30;;;0.40;;
72273;SDS011;60208;48.692;8.948;2022-09-09T17:41:00;1.55;;;0.40;;
72273;SDS011;60208;48.692;8.948;2022-09-09T17:43:29;0.82;;;0.30;;